createdAt,value
2022-08-17T00:01:52.317Z,100.00
2022-08-17T00:04:24.265Z,100.00
2022-08-17T00:06:54.573Z,100.00
2022-08-17T00:09:23.453Z,100.00
2022-08-17T00:12:35.081Z,100.00
2022-08-17T00:14:46.799Z,100.00
2022-08-17T00:17:15.800Z,100.00
2022-08-17T00:19:44.797Z,100.00
2022-08-17T00:22:35.299Z,100.00
2022-08-17T00:25:07.442Z,100.00
2022-08-17T00:27:37.414Z,100.00
2022-08-17T00:30:09.851Z,100.00
2022-08-17T00:33:12.019Z,100.00
2022-08-17T00:35:31.829Z,100.00
2022-08-17T00:38:04.497Z,100.00
2022-08-17T00:40:44.229Z,100.00
2022-08-17T00:43:21.735Z,100.00
2022-08-17T00:45:51.581Z,100.00
2022-08-17T00:48:29.007Z,100.00
2022-08-17T00:51:08.698Z,100.00
2022-08-17T00:53:45.591Z,100.00
2022-08-17T00:56:22.270Z,100.00
2022-08-17T00:58:53.235Z,100.00
2022-08-17T01:01:23.500Z,100.00
2022-08-17T01:05:42.345Z,100.00
2022-08-17T01:08:15.462Z,100.00
2022-08-17T01:10:59.779Z,100.00
2022-08-17T01:13:40.812Z,100.00
2022-08-17T01:16:19.113Z,100.00
2022-08-17T01:18:52.241Z,100.00
2022-08-17T01:21:31.949Z,100.00
2022-08-17T01:24:02.627Z,100.00
2022-08-17T01:26:34.538Z,100.00
2022-08-17T01:29:06.170Z,100.00
2022-08-17T01:31:43.331Z,100.00
2022-08-17T01:34:17.409Z,100.00
2022-08-17T01:36:51.031Z,100.00
2022-08-17T01:39:31.587Z,100.00
2022-08-17T01:42:10.546Z,100.00
2022-08-17T01:44:43.013Z,100.00
2022-08-17T01:47:12.139Z,100.00
2022-08-17T01:49:41.535Z,100.00
2022-08-17T01:52:13.334Z,100.00
2022-08-17T01:54:48.499Z,100.00
2022-08-17T01:57:17.909Z,100.00
2022-08-17T01:59:48.901Z,100.00
2022-08-17T02:02:31.350Z,100.00
2022-08-17T02:05:01.247Z,100.00
2022-08-17T02:07:30.636Z,100.00
2022-08-17T02:10:01.885Z,100.00
2022-08-17T02:12:39.353Z,100.00
2022-08-17T02:15:17.283Z,100.00
2022-08-17T02:17:47.186Z,100.00
2022-08-17T02:20:41.262Z,100.00
2022-08-17T02:23:17.052Z,100.00
2022-08-17T02:25:50.025Z,100.00
2022-08-17T02:28:20.074Z,100.00
2022-08-17T02:31:01.561Z,100.00
2022-08-17T02:33:43.266Z,100.00
2022-08-17T02:36:14.710Z,100.00
2022-08-17T02:38:45.716Z,100.00
2022-08-17T02:41:16.158Z,100.00
2022-08-17T02:43:45.585Z,100.00
2022-08-17T02:46:14.503Z,100.00
2022-08-17T02:48:43.864Z,100.00
2022-08-17T02:51:12.759Z,100.00
2022-08-17T02:53:44.367Z,100.00
2022-08-17T02:56:13.533Z,100.00
2022-08-17T02:58:44.322Z,100.00
2022-08-17T03:01:14.001Z,100.00
2022-08-17T03:05:38.660Z,100.00
2022-08-17T03:08:11.669Z,100.00
2022-08-17T03:10:43.039Z,100.00
2022-08-17T03:13:14.610Z,100.00
2022-08-17T03:15:47.620Z,100.00
2022-08-17T03:18:25.272Z,100.00
2022-08-17T03:21:00.107Z,100.00
2022-08-17T03:23:30.291Z,100.00
2022-08-17T03:26:03.193Z,100.00
2022-08-17T03:28:32.668Z,100.00
2022-08-17T03:31:01.675Z,100.00
2022-08-17T03:33:31.513Z,100.00
2022-08-17T03:36:01.727Z,100.00
2022-08-17T03:38:39.193Z,100.00
2022-08-17T03:41:09.135Z,100.00
2022-08-17T03:43:38.662Z,100.00
2022-08-17T03:46:27.940Z,100.00
2022-08-17T03:49:18.479Z,100.00
2022-08-17T03:52:06.747Z,100.00
2022-08-17T03:54:53.401Z,100.00
2022-08-17T03:57:22.827Z,100.00
2022-08-17T03:59:52.303Z,100.00
2022-08-17T04:02:26.496Z,100.00
2022-08-17T04:04:55.988Z,100.00
2022-08-17T04:07:30.672Z,100.00
2022-08-17T04:09:59.993Z,100.00
2022-08-17T04:12:31.476Z,100.00
2022-08-17T04:15:00.486Z,100.00
2022-08-17T04:17:31.211Z,100.00
2022-08-17T04:20:00.111Z,100.00
2022-08-17T04:22:34.457Z,100.00
2022-08-17T04:25:17.278Z,100.00
2022-08-17T04:27:46.104Z,100.00
2022-08-17T04:30:15.727Z,100.00
2022-08-17T04:33:03.924Z,100.00
2022-08-17T04:35:41.586Z,100.00
2022-08-17T04:38:18.370Z,100.00
2022-08-17T04:41:06.703Z,100.00
2022-08-17T04:43:43.027Z,100.00
2022-08-17T04:46:17.491Z,100.00
2022-08-17T04:48:52.658Z,100.00
2022-08-17T04:51:28.267Z,100.00
2022-08-17T04:54:05.455Z,100.00
2022-08-17T04:56:37.805Z,100.00
2022-08-17T04:59:14.503Z,100.00
2022-08-17T05:01:46.946Z,100.00
2022-08-17T05:05:38.039Z,100.00
2022-08-17T05:08:09.366Z,100.00
2022-08-17T05:10:45.169Z,100.00
2022-08-17T05:13:18.327Z,100.00
2022-08-17T05:15:49.671Z,100.00
2022-08-17T05:18:21.052Z,100.00
2022-08-17T05:20:55.998Z,100.00
2022-08-17T05:23:33.680Z,100.00
2022-08-17T05:26:25.681Z,100.00
2022-08-17T05:29:00.618Z,100.00
2022-08-17T05:31:33.747Z,100.00
2022-08-17T05:34:03.370Z,100.00
2022-08-17T05:36:41.808Z,100.00
2022-08-17T05:39:17.093Z,100.00
2022-08-17T05:41:49.073Z,100.00
2022-08-17T05:44:18.673Z,100.00
2022-08-17T05:46:54.510Z,100.00
2022-08-17T05:49:28.921Z,100.00
2022-08-17T05:52:21.738Z,100.00
2022-08-17T05:55:12.763Z,100.00
2022-08-17T05:58:00.257Z,100.00
2022-08-17T06:00:42.978Z,100.00
2022-08-17T06:03:44.590Z,100.00
2022-08-17T06:06:34.030Z,100.00
2022-08-17T06:09:35.026Z,95.29
2022-08-17T06:12:32.244Z,85.35
2022-08-17T06:15:28.873Z,79.18
2022-08-17T06:18:03.637Z,75.33
2022-08-17T06:20:45.042Z,71.44
2022-08-17T06:23:27.888Z,69.05
2022-08-17T06:26:05.430Z,66.55
2022-08-17T06:28:44.977Z,65.18
2022-08-17T06:31:24.106Z,64.09
2022-08-17T06:33:59.799Z,63.12
2022-08-17T06:36:49.983Z,61.04
2022-08-17T06:39:41.186Z,60.39
2022-08-17T06:43:02.268Z,62.52
2022-08-17T06:45:26.313Z,62.34
2022-08-17T06:48:00.988Z,61.66
2022-08-17T06:50:38.373Z,62.14
2022-08-17T06:53:28.216Z,60.53
2022-08-17T06:56:06.479Z,59.73
2022-08-17T06:58:46.588Z,57.85
2022-08-17T07:01:25.301Z,55.23
2022-08-17T07:05:49.319Z,52.30
2022-08-17T07:08:35.326Z,50.93
2022-08-17T07:11:11.393Z,49.29
2022-08-17T07:13:53.650Z,49.08
2022-08-17T07:16:40.119Z,48.21
2022-08-17T07:19:11.323Z,47.62
2022-08-17T07:21:58.402Z,46.33
2022-08-17T07:24:47.377Z,46.78
2022-08-17T07:27:21.865Z,45.91
2022-08-17T07:29:57.857Z,44.91
2022-08-17T07:32:35.656Z,45.15
2022-08-17T07:35:18.324Z,45.60
2022-08-17T07:38:24.691Z,48.96
2022-08-17T07:41:12.344Z,49.95
2022-08-17T07:43:53.040Z,49.63
2022-08-17T07:46:51.409Z,48.47
2022-08-17T07:49:35.061Z,46.01
2022-08-17T07:52:47.660Z,45.29
2022-08-17T07:55:23.421Z,44.49
2022-08-17T07:57:59.153Z,44.14
2022-08-17T08:00:37.798Z,41.29
2022-08-17T08:03:28.528Z,41.79
2022-08-17T08:06:05.292Z,42.07
2022-08-17T08:08:42.727Z,41.69
2022-08-17T08:11:29.685Z,41.34
2022-08-17T08:14:28.618Z,38.95
2022-08-17T08:17:05.900Z,38.17
2022-08-17T08:19:42.192Z,37.84
2022-08-17T08:22:26.417Z,41.22
2022-08-17T08:25:28.711Z,40.90
2022-08-17T08:28:30.467Z,38.72
2022-08-17T08:31:20.817Z,36.20
2022-08-17T08:34:58.707Z,36.10
2022-08-17T08:37:22.693Z,35.79
2022-08-17T08:40:09.269Z,35.52
2022-08-17T08:42:51.387Z,36.15
2022-08-17T08:45:34.438Z,37.58
2022-08-17T08:48:53.711Z,35.95
2022-08-17T08:51:41.626Z,37.81
2022-08-17T08:54:38.901Z,38.15
2022-08-17T08:57:28.022Z,38.00
2022-08-17T09:00:20.358Z,40.05
2022-08-17T09:05:58.872Z,40.72
2022-08-17T09:08:44.969Z,40.30
2022-08-17T09:11:23.918Z,40.48
2022-08-17T09:14:21.253Z,41.13
2022-08-17T09:17:18.764Z,42.60
2022-08-17T09:20:00.882Z,42.35
2022-08-17T09:22:46.936Z,43.93
2022-08-17T09:25:26.160Z,43.37
2022-08-17T09:28:04.611Z,42.26
2022-08-17T09:30:58.834Z,43.65
2022-08-17T09:33:30.052Z,44.55
2022-08-17T09:36:13.337Z,45.40
2022-08-17T09:38:57.814Z,42.79
2022-08-17T09:41:39.123Z,46.46
2022-08-17T09:44:40.051Z,42.96
2022-08-17T09:47:32.154Z,41.08
2022-08-17T09:50:15.964Z,40.30
2022-08-17T09:52:46.632Z,39.74
2022-08-17T09:55:18.685Z,40.68
2022-08-17T09:58:05.653Z,38.87
2022-08-17T10:00:51.046Z,39.20
2022-08-17T10:03:42.340Z,37.83
2022-08-17T10:06:22.099Z,37.24
2022-08-17T10:09:09.177Z,35.96
2022-08-17T10:12:17.138Z,36.11
2022-08-17T10:15:08.109Z,35.50
2022-08-17T10:17:56.547Z,36.78
2022-08-17T10:20:34.987Z,35.43
2022-08-17T10:23:38.010Z,34.49
2022-08-17T10:26:18.449Z,34.95
2022-08-17T10:29:02.509Z,33.68
2022-08-17T10:31:47.532Z,38.34
2022-08-17T10:34:52.748Z,37.06
2022-08-17T10:38:14.879Z,36.29
2022-08-17T10:40:57.481Z,35.26
2022-08-17T10:43:57.816Z,34.36
2022-08-17T10:46:56.607Z,33.79
2022-08-17T10:49:34.393Z,36.11
2022-08-17T10:52:25.053Z,35.64
2022-08-17T10:55:15.639Z,34.86
2022-08-17T10:57:47.872Z,35.38
2022-08-17T11:00:59.762Z,37.05
2022-08-17T11:06:17.060Z,32.67
2022-08-17T11:09:11.847Z,33.86
2022-08-17T11:12:10.355Z,35.79
2022-08-17T11:15:00.610Z,36.46
2022-08-17T11:18:11.631Z,37.48
2022-08-17T11:21:32.290Z,39.14
2022-08-17T11:24:20.769Z,39.98
2022-08-17T11:27:12.110Z,39.33
2022-08-17T11:30:00.956Z,38.20
2022-08-17T11:32:47.134Z,37.06
2022-08-17T11:35:40.584Z,37.72
2022-08-17T11:38:28.388Z,37.27
2022-08-17T11:41:21.113Z,36.58
2022-08-17T11:44:20.024Z,38.68
2022-08-17T11:47:35.562Z,39.57
2022-08-17T11:50:51.845Z,41.76
2022-08-17T11:54:31.561Z,40.17
2022-08-17T11:56:55.725Z,38.33
2022-08-17T11:59:59.110Z,37.80
2022-08-17T12:02:47.379Z,37.36
2022-08-17T12:05:35.651Z,37.29
2022-08-17T12:08:22.041Z,37.36
2022-08-17T12:11:01.343Z,37.23
2022-08-17T12:13:39.813Z,38.23
2022-08-17T12:16:10.972Z,38.80
2022-08-17T12:18:42.442Z,40.50
2022-08-17T12:21:40.078Z,39.03
2022-08-17T12:24:36.939Z,39.24
2022-08-17T12:27:13.219Z,39.96
2022-08-17T12:29:46.789Z,40.64
2022-08-17T12:32:21.482Z,40.25
2022-08-17T12:34:59.369Z,40.25
2022-08-17T12:37:32.772Z,39.77
2022-08-17T12:40:07.679Z,39.64
2022-08-17T12:42:44.085Z,39.30
2022-08-17T12:45:26.846Z,37.35
2022-08-17T12:48:08.017Z,36.96
2022-08-17T12:50:39.618Z,36.37
2022-08-17T12:53:16.114Z,37.99
2022-08-17T12:55:45.991Z,38.73
2022-08-17T12:58:24.719Z,38.09
2022-08-17T13:01:08.972Z,39.77
2022-08-17T13:05:42.437Z,41.50
2022-08-17T13:08:20.294Z,41.90
2022-08-17T13:10:58.537Z,43.32
2022-08-17T13:13:32.032Z,40.13
2022-08-17T13:16:04.983Z,40.32
2022-08-17T13:18:42.522Z,42.02
2022-08-17T13:21:28.504Z,40.02
2022-08-17T13:24:02.230Z,42.00
2022-08-17T13:26:37.451Z,41.99
2022-08-17T13:29:10.161Z,42.27
2022-08-17T13:31:52.845Z,42.36
2022-08-17T13:35:12.959Z,38.59
2022-08-17T13:37:40.695Z,37.83
2022-08-17T13:40:37.413Z,39.03
2022-08-17T13:43:06.971Z,39.62
2022-08-17T13:45:52.752Z,38.25
2022-08-17T13:48:28.779Z,37.76
2022-08-17T13:51:34.004Z,38.91
2022-08-17T13:54:20.488Z,38.66
2022-08-17T13:57:01.420Z,37.80
2022-08-17T13:59:55.052Z,38.24
2022-08-17T14:02:28.432Z,37.43
2022-08-17T14:05:00.818Z,36.93
2022-08-17T14:07:35.436Z,36.37
2022-08-17T14:10:14.196Z,35.08
2022-08-17T14:12:46.782Z,34.92
2022-08-17T14:15:20.685Z,34.10
2022-08-17T14:17:51.288Z,33.38
2022-08-17T14:20:24.826Z,34.23
2022-08-17T14:22:57.338Z,32.68
2022-08-17T14:25:30.614Z,32.96
2022-08-17T14:28:01.865Z,33.02
2022-08-17T14:30:31.253Z,34.65
2022-08-17T14:33:02.422Z,34.24
2022-08-17T14:35:31.815Z,34.56
2022-08-17T14:38:04.423Z,36.13
2022-08-17T14:40:37.900Z,37.08
2022-08-17T14:43:06.954Z,36.48
2022-08-17T14:45:40.207Z,36.39
2022-08-17T14:48:09.605Z,35.40
2022-08-17T14:50:42.539Z,35.23
2022-08-17T14:53:16.006Z,34.11
2022-08-17T14:55:47.366Z,34.18
2022-08-17T14:58:18.212Z,33.71
2022-08-17T15:00:50.010Z,33.46
2022-08-17T15:05:37.922Z,35.53
2022-08-17T15:08:11.076Z,34.90
2022-08-17T15:10:40.756Z,34.70
2022-08-17T15:13:20.926Z,34.63
2022-08-17T15:15:50.870Z,34.21
2022-08-17T15:18:20.846Z,34.54
2022-08-17T15:20:51.645Z,35.22
2022-08-17T15:23:23.820Z,35.25
2022-08-17T15:25:55.903Z,34.59
2022-08-17T15:28:28.132Z,35.37
2022-08-17T15:30:57.254Z,36.51
2022-08-17T15:33:30.603Z,36.31
2022-08-17T15:36:05.146Z,37.68
2022-08-17T15:38:39.407Z,38.08
2022-08-17T15:41:12.678Z,38.54
2022-08-17T15:43:42.232Z,38.73
2022-08-17T15:46:15.506Z,37.68
2022-08-17T15:48:47.904Z,37.02
2022-08-17T15:51:21.921Z,37.09
2022-08-17T15:53:56.275Z,38.46
2022-08-17T15:56:26.837Z,38.15
2022-08-17T15:58:56.576Z,38.26
2022-08-17T16:03:01.337Z,38.34
2022-08-17T16:04:29.838Z,38.19
2022-08-17T16:07:01.471Z,37.62
2022-08-17T16:09:30.902Z,38.29
2022-08-17T16:12:09.528Z,38.05
2022-08-17T16:14:40.570Z,38.34
2022-08-17T16:17:39.113Z,38.48
2022-08-17T16:19:59.237Z,38.71
2022-08-17T16:22:37.612Z,38.50
2022-08-17T16:25:11.972Z,40.26
2022-08-17T16:27:41.929Z,41.30
2022-08-17T16:30:17.747Z,42.51
2022-08-17T16:32:48.575Z,43.13
2022-08-17T16:35:18.606Z,42.68
2022-08-17T16:37:49.899Z,42.18
2022-08-17T16:40:20.226Z,43.17
2022-08-17T16:42:51.524Z,43.57
2022-08-17T16:45:24.637Z,43.38
2022-08-17T16:47:55.289Z,43.63
2022-08-17T16:50:26.294Z,45.02
2022-08-17T16:53:06.947Z,45.43
2022-08-17T16:55:36.813Z,45.93
2022-08-17T16:58:09.212Z,46.35
2022-08-17T17:00:39.736Z,47.79
2022-08-17T17:06:00.110Z,46.90
2022-08-17T17:08:40.724Z,46.84
2022-08-17T17:11:23.507Z,47.13
2022-08-17T17:14:06.278Z,47.20
2022-08-17T17:16:52.014Z,47.34
2022-08-17T17:19:35.081Z,47.17
2022-08-17T17:22:18.091Z,47.35
2022-08-17T17:25:08.392Z,47.71
2022-08-17T17:27:53.378Z,49.22
2022-08-17T17:30:28.267Z,51.35
2022-08-17T17:33:05.692Z,52.07
2022-08-17T17:35:44.642Z,53.58
2022-08-17T17:38:24.914Z,54.15
2022-08-17T17:41:09.031Z,55.12
2022-08-17T17:43:39.976Z,55.68
2022-08-17T17:46:27.700Z,56.63
2022-08-17T17:48:58.657Z,57.91
2022-08-17T17:52:05.247Z,58.36
2022-08-17T17:54:55.087Z,59.14
2022-08-17T17:57:41.121Z,60.05
2022-08-17T18:00:20.256Z,60.04
2022-08-17T18:03:31.392Z,61.86
2022-08-17T18:06:28.489Z,62.58
2022-08-17T18:09:21.422Z,63.09
2022-08-17T18:12:22.639Z,63.81
2022-08-17T18:15:23.466Z,64.21
2022-08-17T18:18:26.320Z,65.70
2022-08-17T18:21:08.002Z,66.13
2022-08-17T18:23:43.469Z,67.09
2022-08-17T18:26:13.235Z,68.78
2022-08-17T18:28:45.388Z,70.28
2022-08-17T18:31:22.807Z,71.21
2022-08-17T18:34:46.703Z,72.29
2022-08-17T18:37:49.422Z,73.04
2022-08-17T18:40:45.796Z,73.84
2022-08-17T18:43:28.230Z,75.85
2022-08-17T18:46:29.982Z,76.47
2022-08-17T18:49:07.787Z,77.40
2022-08-17T18:51:43.023Z,78.00
2022-08-17T18:54:26.949Z,78.36
2022-08-17T18:57:00.525Z,79.64
2022-08-17T18:59:45.006Z,80.74
2022-08-17T19:05:42.915Z,81.00
2022-08-17T19:08:36.004Z,81.65
2022-08-17T19:11:13.648Z,81.41
2022-08-17T19:13:54.810Z,82.10
2022-08-17T19:16:45.749Z,82.39
2022-08-17T19:19:23.594Z,82.69
2022-08-17T19:21:59.515Z,82.95
2022-08-17T19:24:33.281Z,82.35
2022-08-17T19:27:15.656Z,81.96
2022-08-17T19:29:56.388Z,78.48
2022-08-17T19:32:31.943Z,73.46
2022-08-17T19:35:03.416Z,68.29
2022-08-17T19:37:52.747Z,66.39
2022-08-17T19:40:52.387Z,66.43
2022-08-17T19:44:14.498Z,64.66
2022-08-17T19:47:43.164Z,63.65
2022-08-17T19:50:19.033Z,62.32
2022-08-17T19:53:02.208Z,61.85
2022-08-17T19:55:47.889Z,61.59
2022-08-17T19:58:41.922Z,61.75
2022-08-17T20:01:22.743Z,61.73
2022-08-17T20:04:04.746Z,61.92
2022-08-17T20:06:40.778Z,61.93
2022-08-17T20:09:35.438Z,61.77
2022-08-17T20:12:11.816Z,62.68
2022-08-17T20:14:53.488Z,63.42
2022-08-17T20:17:31.969Z,63.82
2022-08-17T20:20:21.996Z,64.55
2022-08-17T20:23:01.638Z,64.99
2022-08-17T20:26:00.178Z,65.78
2022-08-17T20:28:37.408Z,65.60
2022-08-17T20:31:47.286Z,65.82
2022-08-17T20:34:37.850Z,66.31
2022-08-17T20:37:11.201Z,66.97
2022-08-17T20:39:45.351Z,67.68
2022-08-17T20:45:54.226Z,67.65
2022-08-17T20:48:38.493Z,68.18
2022-08-17T20:51:28.259Z,68.28
2022-08-17T20:54:47.245Z,68.49
2022-08-17T20:57:49.009Z,68.64
2022-08-17T21:00:45.565Z,68.49
2022-08-17T21:06:00.433Z,68.97
2022-08-17T21:08:35.086Z,68.81
2022-08-17T21:12:03.710Z,69.47
2022-08-17T21:15:02.996Z,69.59
2022-08-17T21:17:51.808Z,69.59
2022-08-17T21:20:39.847Z,69.27
2022-08-17T21:23:43.054Z,69.42
2022-08-17T21:26:33.560Z,70.12
2022-08-17T21:29:31.858Z,69.55
2022-08-17T21:32:24.568Z,70.65
2022-08-17T21:35:29.377Z,71.13
2022-08-17T21:38:06.079Z,71.44
2022-08-17T21:40:36.662Z,73.06
2022-08-17T21:43:24.517Z,74.12
2022-08-17T21:46:03.036Z,73.36
2022-08-17T21:48:43.146Z,73.70
2022-08-17T21:51:23.171Z,74.66
2022-08-17T21:54:30.458Z,76.89
2022-08-17T21:57:17.871Z,77.44
2022-08-17T21:59:53.097Z,76.90
2022-08-17T22:02:26.647Z,75.03
2022-08-17T22:05:02.598Z,74.89
2022-08-17T22:07:44.392Z,75.00
2022-08-17T22:13:17.496Z,77.20
2022-08-17T22:15:54.615Z,77.02
2022-08-17T22:18:30.218Z,76.63
2022-08-17T22:21:05.952Z,76.12
2022-08-17T22:24:06.418Z,75.65
2022-08-17T22:27:05.022Z,76.56
2022-08-17T22:30:02.187Z,78.51
2022-08-17T22:32:39.557Z,80.38
2022-08-17T22:35:35.437Z,81.53
2022-08-17T22:38:35.109Z,81.02
2022-08-17T22:41:41.965Z,80.09
2022-08-17T22:44:26.215Z,80.83
2022-08-17T22:47:11.167Z,82.15
2022-08-17T22:50:05.631Z,82.73
2022-08-17T22:53:01.990Z,84.07
2022-08-17T22:55:52.115Z,85.19
2022-08-17T22:58:43.652Z,85.33
2022-08-17T23:01:32.821Z,86.07
2022-08-17T23:05:35.150Z,89.09
2022-08-17T23:08:06.582Z,90.95
2022-08-17T23:10:38.209Z,92.29
2022-08-17T23:13:09.634Z,93.26
2022-08-17T23:15:41.540Z,93.94
2022-08-17T23:18:10.641Z,92.90
2022-08-17T23:20:46.496Z,91.07
2022-08-17T23:23:18.008Z,90.85
2022-08-17T23:25:52.798Z,89.49
2022-08-17T23:28:22.083Z,88.66
2022-08-17T23:30:53.270Z,88.31
2022-08-17T23:33:30.058Z,87.37
2022-08-17T23:36:00.798Z,87.90
2022-08-17T23:38:32.025Z,86.83
2022-08-17T23:41:05.137Z,86.43
2022-08-17T23:43:36.476Z,88.96
2022-08-17T23:46:07.487Z,89.97
2022-08-17T23:48:38.167Z,91.28
2022-08-17T23:51:15.878Z,92.61
2022-08-17T23:53:54.499Z,93.91
2022-08-17T23:56:26.169Z,94.78
2022-08-17T23:58:58.280Z,95.25
